Gesamt
Milingimbi Airport (Millingimbi, Northern Territory) MGT Wetter
|
Millingimbi, Northern Territory (MGT / YMGB)
Klarer Himmel
Windstill |
|
25 °C |
There is no TAF data available at MGT or any nearby airports.
Kürzlicher METAR-Verlauf für MGT
| Date | Time (ACST) | Flight Rules | Wind Dir. | Speed | Type | Height AGL (ft) | Visibility | Temp (°C) | Temp (°F) | Dew Point (°C) | Dew Point (°F) | Rel. Humid. | Pressure | Density Altitude | Remarks |
|---|---|---|---|---|---|---|---|---|---|---|---|---|---|---|---|
| 04-Mai | 22:30 | n/a | 170° | 1 kt | Missing | 25° | 77° | 24° | 75° | 94% | 1012 mb | 1.289 ft | |||
| 04-Mai | 21:30 | n/a | Calm | Missing | 25° | 77° | 24° | 75° | 94% | 1012 mb | 1.289 ft | ||||
| 04-Mai | 20:30 | n/a | Calm | Missing | 25° | 77° | 24° | 75° | 94% | 1012 mb | 1.289 ft | ||||
| 04-Mai | 19:30 | n/a | 100° | 5 kt | Missing | 25° | 77° | 23° | 73° | 89% | 1012 mb | 1.289 ft | |||
| 04-Mai | 18:30 | n/a | 170° | 12 kt | Missing | 26° | 78° | 23° | 73° | 84% | 1011 mb | 1.438 ft | |||
| 04-Mai | 17:30 | n/a | 20° | 5 kt | Missing | 30° | 86° | 24° | 75° | 70% | 1010 mb | 1.948 ft | |||
| 04-Mai | 16:30 | n/a | 360° | 6 kt | Missing | 31° | 87° | 24° | 75° | 66% | 1009 mb | 2.097 ft | |||
| 04-Mai | 15:30 | n/a | 70° | 7 kt | Missing | 32° | 89° | 23° | 73° | 59% | 1009 mb | 2.217 ft | |||
| 04-Mai | 14:30 | n/a | 70° | 7 kt | Missing | 32° | 89° | 24° | 75° | 63% | 1010 mb | 2.188 ft | |||
| 04-Mai | 13:30 | n/a | 50° | 7 kt | Missing | 32° | 89° | 24° | 75° | 63% | 1010 mb | 2.188 ft | |||
| 04-Mai | 12:30 | n/a | 100° | 7 kt | Missing | 32° | 89° | 23° | 73° | 59% | 1011 mb | 2.158 ft | |||
| 04-Mai | 11:30 | n/a | 110° | 8 kt | Missing | 30° | 86° | 24° | 75° | 70% | 1012 mb | 1.889 ft | |||
| 04-Mai | 10:30 | n/a | 120° | 8 kt | Missing | 31° | 87° | 24° | 75° | 66% | 1012 mb | 2.009 ft | |||
| 04-Mai | 09:30 | n/a | 120° | 7 kt | Missing | 30° | 86° | 24° | 75° | 70% | 1012 mb | 1.889 ft | |||
| 04-Mai | 08:30 | n/a | 130° | 7 kt | Missing | 28° | 82° | 24° | 75° | 79% | 1012 mb | 1.649 ft | |||
| 04-Mai | 07:30 | n/a | 150° | 6 kt | Missing | 26° | 78° | 24° | 75° | 89% | 1011 mb | 1.438 ft | |||
| 04-Mai | 06:30 | n/a | 120° | 3 kt | Missing | 25° | 77° | 24° | 75° | 94% | 1010 mb | 1.348 ft | |||
| 04-Mai | 05:30 | n/a | 90° | 4 kt | Missing | 25° | 77° | 24° | 75° | 94% | 1010 mb | 1.348 ft | |||
| 04-Mai | 04:30 | n/a | 150° | 4 kt | Missing | 25° | 77° | 24° | 75° | 94% | 1010 mb | 1.348 ft | |||
| 04-Mai | 03:30 | n/a | 140° | 4 kt | Missing | 25° | 77° | 24° | 75° | 94% | 1010 mb | 1.348 ft | |||
| 04-Mai | 02:30 | n/a | 120° | 2 kt | Missing | 25° | 77° | 24° | 75° | 94% | 1010 mb | 1.348 ft | |||
| 04-Mai | 01:30 | n/a | 150° | 5 kt | Missing | 26° | 78° | 24° | 75° | 89% | 1011 mb | 1.438 ft | |||
| 04-Mai | 00:30 | n/a | 110° | 3 kt | Missing | 26° | 78° | 24° | 75° | 89% | 1011 mb | 1.438 ft | |||
| 03-Mai | 23:30 | n/a | 140° | 5 kt | Missing | 27° | 80° | 24° | 75° | 84% | 1011 mb | 1.558 ft |
Anmelden
| Ihr Browser wird nicht unterstützt. aktualisieren Sie Ihren Browser |
